Kherson, Ukraine
Current Conditions -  °F | °C
As of 3:00 PM on Sunday 25 Jan 2015 (Local Time) from UKON Reporting Station
Haze Haze  
Wind Chill: 24°   Ceiling: 600
Heat Index: 34°   Visibility: 2.6mi
Dew Point: 32°   Wind: 13mph
Humidity: 93%   Direction: 90°E
Pressure: 30"   Gusts: NA
Location:  46.63°N, 32.6°E
Report Text: UKON 251200Z 09006MPS 4200 BR OVC006 01/M00 Q1016 NOSIG
Loading
Personal Weather Stations






























Interactive Weather Map New forecast layout! Learn more

10-Day Weather Forecast

Advertisements
Track Severe Weather on mobile